createdAt,value
2018-11-21T00:00:24.224Z,73.60
2018-11-21T00:02:54.593Z,73.30
2018-11-21T00:05:24.379Z,73.50
2018-11-21T00:07:54.300Z,73.90
2018-11-21T00:10:24.201Z,73.50
2018-11-21T00:12:55.644Z,74.30
2018-11-21T00:15:25.698Z,74.70
2018-11-21T00:17:55.915Z,74.20
2018-11-21T00:20:25.864Z,74.80
2018-11-21T00:22:55.837Z,75.30
2018-11-21T00:25:25.924Z,75.50
2018-11-21T00:27:56.051Z,76.00
2018-11-21T00:30:25.844Z,76.30
2018-11-21T00:32:55.699Z,76.50
2018-11-21T00:35:25.726Z,75.90
2018-11-21T00:37:56.021Z,76.00
2018-11-21T00:40:25.651Z,76.00
2018-11-21T00:42:55.745Z,76.20
2018-11-21T00:45:25.671Z,76.30
2018-11-21T00:47:55.438Z,76.10
2018-11-21T00:50:25.185Z,76.50
2018-11-21T00:52:55.284Z,76.10
2018-11-21T00:55:25.344Z,75.30
2018-11-21T00:57:55.207Z,74.90
2018-11-21T01:00:25.538Z,75.80
2018-11-21T01:02:55.370Z,76.50
2018-11-21T01:05:25.281Z,76.80
2018-11-21T01:07:55.248Z,76.60
2018-11-21T01:10:25.243Z,76.10
2018-11-21T01:12:55.258Z,75.60
2018-11-21T01:15:25.097Z,75.30
2018-11-21T01:17:54.857Z,75.80
2018-11-21T01:20:24.833Z,75.90
2018-11-21T01:22:55.039Z,75.40
2018-11-21T01:25:25.219Z,74.80
2018-11-21T01:28:43.389Z,75.50
2018-11-21T01:31:13.444Z,75.00
2018-11-21T01:33:43.104Z,74.70
2018-11-21T01:36:12.924Z,74.90
2018-11-21T01:38:42.683Z,75.00
2018-11-21T01:41:13.104Z,75.10
2018-11-21T01:43:43.154Z,75.10
2018-11-21T01:46:12.963Z,75.30
2018-11-21T01:48:42.960Z,75.10
2018-11-21T01:51:12.804Z,74.70
2018-11-21T01:53:43.599Z,74.50
2018-11-21T01:56:13.454Z,75.30
2018-11-21T01:58:43.684Z,75.00
2018-11-21T02:01:13.634Z,74.50
2018-11-21T02:03:43.429Z,74.70
2018-11-21T02:06:13.309Z,75.10
2018-11-21T02:08:43.269Z,75.30
2018-11-21T02:11:13.354Z,75.50
2018-11-21T02:13:43.673Z,75.80
2018-11-21T02:16:13.430Z,76.30
2018-11-21T02:18:43.299Z,76.90
2018-11-21T02:21:13.770Z,77.50
2018-11-21T02:23:44.034Z,77.40
2018-11-21T02:26:13.805Z,77.80
2018-11-21T02:28:44.604Z,77.80
2018-11-21T02:31:14.554Z,78.20
2018-11-21T02:33:44.290Z,78.10
2018-11-21T02:36:14.294Z,78.60
2018-11-21T02:38:44.399Z,78.50
2018-11-21T02:41:14.379Z,78.80
2018-11-21T02:43:44.644Z,78.80
2018-11-21T02:46:14.905Z,78.50
2018-11-21T02:48:44.768Z,78.80
2018-11-21T02:51:15.011Z,78.80
2018-11-21T02:53:44.744Z,79.00
2018-11-21T02:56:14.714Z,78.90
2018-11-21T02:58:45.054Z,78.90
2018-11-21T03:01:15.209Z,79.00
2018-11-21T03:03:45.141Z,78.90
2018-11-21T03:06:15.163Z,79.00
2018-11-21T03:08:44.913Z,79.20
2018-11-21T03:11:14.905Z,79.60
2018-11-21T03:13:44.819Z,79.70
2018-11-21T03:16:14.905Z,79.70
2018-11-21T03:18:44.634Z,79.80
2018-11-21T03:21:14.788Z,80.00
2018-11-21T03:23:44.485Z,80.30
2018-11-21T03:26:14.233Z,80.10
2018-11-21T03:28:44.299Z,80.00
2018-11-21T03:31:14.099Z,79.90
2018-11-21T03:33:44.215Z,80.10
2018-11-21T03:36:14.164Z,80.20
2018-11-21T03:38:43.945Z,80.20
2018-11-21T03:41:13.749Z,80.20
2018-11-21T03:43:46.245Z,80.20
2018-11-21T03:46:16.349Z,80.20
2018-11-21T03:48:46.535Z,80.50
2018-11-21T03:51:16.169Z,80.80
2018-11-21T03:53:46.394Z,80.80
2018-11-21T03:56:16.268Z,81.00
2018-11-21T03:58:46.058Z,81.20
2018-11-21T04:01:16.734Z,81.30
2018-11-21T04:03:46.949Z,81.40
2018-11-21T04:06:16.792Z,81.30
2018-11-21T04:08:48.654Z,81.30
2018-11-21T04:11:18.769Z,81.40
2018-11-21T04:13:48.769Z,81.50
2018-11-21T04:16:18.749Z,81.50
2018-11-21T04:18:52.585Z,81.50
2018-11-21T04:21:22.519Z,81.40
2018-11-21T04:23:52.343Z,81.50
2018-11-21T04:26:25.175Z,81.50
2018-11-21T04:28:57.583Z,81.60
2018-11-21T04:31:27.848Z,81.50
2018-11-21T04:33:58.210Z,81.50
2018-11-21T04:36:28.364Z,81.60
2018-11-21T04:39:00.788Z,81.50
2018-11-21T04:41:31.004Z,81.30
2018-11-21T04:44:01.396Z,81.50
2018-11-21T04:46:31.150Z,81.30
2018-11-21T04:49:01.409Z,81.00
2018-11-21T04:51:31.303Z,80.50
2018-11-21T04:54:01.199Z,80.40
2018-11-21T04:56:31.089Z,80.00
2018-11-21T04:59:01.360Z,79.80
2018-11-21T05:01:31.379Z,79.70
2018-11-21T05:04:01.570Z,79.90
2018-11-21T05:06:31.655Z,80.00
2018-11-21T05:09:01.479Z,80.10
2018-11-21T05:11:31.479Z,80.20
2018-11-21T05:14:01.444Z,80.20
2018-11-21T05:16:31.633Z,80.30
2018-11-21T05:19:01.908Z,80.00
2018-11-21T05:21:32.079Z,79.80
2018-11-21T05:24:05.829Z,80.10
2018-11-21T05:26:35.984Z,79.80
2018-11-21T05:29:05.739Z,79.80
2018-11-21T05:31:35.810Z,79.60
2018-11-21T05:34:07.475Z,79.50
2018-11-21T05:36:37.209Z,79.30
2018-11-21T05:39:10.909Z,79.50
2018-11-21T05:41:41.049Z,79.40
2018-11-21T05:44:10.970Z,79.10
2018-11-21T05:46:40.883Z,78.80
2018-11-21T05:49:11.259Z,78.90
2018-11-21T05:51:41.137Z,78.90
2018-11-21T05:54:11.265Z,77.90
2018-11-21T05:56:41.164Z,77.80
2018-11-21T05:59:11.334Z,77.50
2018-11-21T06:01:41.509Z,77.40
2018-11-21T06:04:11.504Z,78.30
2018-11-21T06:06:42.447Z,77.80
2018-11-21T06:09:13.570Z,77.40
2018-11-21T06:11:44.110Z,77.50
2018-11-21T06:14:13.959Z,77.20
2018-11-21T06:16:43.784Z,77.20
2018-11-21T06:19:14.179Z,77.30
2018-11-21T06:21:44.017Z,76.10
2018-11-21T06:24:13.819Z,76.20
2018-11-21T06:26:43.749Z,75.90
2018-11-21T06:29:13.825Z,74.50
2018-11-21T06:31:43.580Z,74.40
2018-11-21T06:34:13.712Z,74.00
2018-11-21T06:36:43.619Z,73.50
2018-11-21T06:39:13.464Z,74.60
2018-11-21T06:41:43.561Z,73.80
2018-11-21T06:44:13.399Z,73.90
2018-11-21T06:46:43.964Z,71.50
2018-11-21T06:49:14.605Z,71.60
2018-11-21T06:51:44.619Z,70.80
2018-11-21T06:54:15.498Z,71.50
2018-11-21T06:56:45.434Z,70.80
2018-11-21T06:59:15.644Z,70.90
2018-11-21T07:01:45.825Z,69.40
2018-11-21T07:04:15.679Z,70.80
2018-11-21T07:06:45.564Z,69.40
2018-11-21T07:09:15.675Z,68.80
2018-11-21T07:11:46.888Z,69.10
2018-11-21T07:14:15.525Z,68.80
2018-11-21T07:16:45.365Z,68.60
2018-11-21T07:19:15.630Z,68.40
2018-11-21T07:21:45.454Z,67.00
2018-11-21T07:24:15.639Z,67.70
2018-11-21T07:26:45.749Z,67.20
2018-11-21T07:29:15.573Z,66.30
2018-11-21T07:31:45.393Z,66.10
2018-11-21T07:34:15.679Z,67.20
2018-11-21T07:36:54.708Z,67.10
2018-11-21T07:39:24.900Z,65.10
2018-11-21T07:41:55.425Z,66.20
2018-11-21T07:44:25.184Z,65.10
2018-11-21T07:46:55.359Z,65.20
2018-11-21T07:49:25.179Z,64.20
2018-11-21T07:51:55.345Z,63.90
2018-11-21T07:54:25.299Z,62.40
2018-11-21T07:57:47.244Z,62.90
2018-11-21T08:01:00.290Z,62.80
2018-11-21T08:03:32.161Z,61.40
2018-11-21T08:06:08.504Z,61.20
2018-11-21T08:08:55.674Z,60.70
2018-11-21T08:11:43.329Z,62.00
2018-11-21T08:14:30.494Z,61.20
2018-11-21T08:17:25.343Z,61.70
2018-11-21T08:20:19.984Z,60.80
2018-11-21T08:23:11.824Z,60.70
2018-11-21T08:26:04.629Z,61.10
2018-11-21T08:28:35.267Z,63.50
2018-11-21T08:31:12.414Z,65.80
2018-11-21T08:33:42.269Z,65.80
2018-11-21T08:36:12.464Z,66.50
2018-11-21T08:38:42.684Z,66.60
2018-11-21T08:41:12.935Z,66.80
2018-11-21T08:43:42.929Z,67.10
2018-11-21T08:46:13.280Z,68.30
2018-11-21T08:48:43.565Z,68.10
2018-11-21T08:51:13.739Z,68.20
2018-11-21T08:53:43.844Z,68.30
2018-11-21T08:56:13.645Z,68.60
2018-11-21T08:58:44.732Z,68.20
2018-11-21T09:01:14.715Z,68.80
2018-11-21T09:03:44.949Z,69.10
2018-11-21T09:06:15.015Z,69.00
2018-11-21T09:08:44.744Z,68.10
2018-11-21T09:11:15.114Z,68.40
2018-11-21T09:13:44.895Z,67.70
2018-11-21T09:16:15.244Z,67.00
2018-11-21T09:18:45.227Z,66.60
2018-11-21T09:21:15.143Z,66.60
2018-11-21T09:23:45.096Z,66.40
2018-11-21T09:26:14.859Z,65.80
2018-11-21T09:28:45.274Z,65.60
2018-11-21T09:31:15.174Z,65.70
2018-11-21T09:33:44.990Z,65.40
2018-11-21T09:36:15.040Z,65.40
2018-11-21T09:38:44.845Z,65.60
2018-11-21T09:41:14.679Z,65.60
2018-11-21T09:43:44.570Z,66.30
2018-11-21T09:46:17.279Z,65.30
2018-11-21T09:48:44.670Z,63.70
2018-11-21T09:51:17.849Z,65.80
2018-11-21T09:53:47.898Z,64.70
2018-11-21T09:56:17.950Z,64.50
2018-11-21T09:58:48.144Z,64.10
2018-11-21T10:01:54.444Z,63.50
2018-11-21T10:04:24.693Z,63.00
2018-11-21T10:06:54.492Z,63.20
2018-11-21T10:09:27.273Z,63.10
2018-11-21T10:11:57.509Z,63.20
2018-11-21T10:14:27.279Z,62.60
2018-11-21T10:16:57.271Z,62.40
2018-11-21T10:19:30.082Z,63.20
2018-11-21T10:21:59.948Z,62.10
2018-11-21T10:24:30.444Z,61.80
2018-11-21T10:27:00.509Z,61.90
2018-11-21T10:29:30.939Z,60.40
2018-11-21T10:32:00.904Z,60.90
2018-11-21T10:34:31.186Z,61.70
2018-11-21T10:37:01.305Z,61.50
2018-11-21T10:39:31.276Z,61.90
2018-11-21T10:42:01.280Z,62.00
2018-11-21T10:44:31.284Z,62.30
2018-11-21T10:47:02.999Z,62.10
2018-11-21T10:49:33.099Z,62.60
2018-11-21T10:52:02.914Z,62.00
2018-11-21T10:54:32.979Z,61.10
2018-11-21T10:57:03.441Z,60.70
2018-11-21T10:59:33.526Z,61.20
2018-11-21T11:02:20.739Z,59.90
2018-11-21T11:05:15.760Z,60.30
2018-11-21T11:08:08.334Z,59.80
2018-11-21T11:11:12.486Z,59.30
2018-11-21T11:14:07.489Z,58.90
2018-11-21T11:16:54.952Z,58.40
2018-11-21T11:19:54.134Z,58.80
2018-11-21T11:22:42.879Z,57.20
2018-11-21T11:25:46.795Z,57.60
2018-11-21T11:28:43.259Z,56.80
2018-11-21T11:31:44.236Z,55.60
2018-11-21T11:34:31.264Z,54.30
2018-11-21T11:37:22.699Z,55.80
2018-11-21T11:40:09.814Z,55.60
2018-11-21T11:42:58.997Z,55.20
2018-11-21T11:46:05.955Z,56.20
2018-11-21T11:48:58.491Z,58.20
2018-11-21T11:51:50.345Z,57.70
2018-11-21T11:54:42.328Z,58.70
2018-11-21T11:57:40.593Z,58.90
2018-11-21T12:00:21.324Z,59.80
2018-11-21T12:03:13.268Z,60.10
2018-11-21T12:06:00.460Z,60.70
2018-11-21T12:08:52.683Z,61.30
2018-11-21T12:11:59.141Z,61.50
2018-11-21T12:14:36.022Z,62.60
2018-11-21T12:17:25.549Z,62.80
2018-11-21T12:20:20.874Z,62.70
2018-11-21T12:23:08.444Z,63.80
2018-11-21T12:25:56.380Z,63.10
2018-11-21T12:28:40.812Z,63.80
2018-11-21T12:31:26.235Z,63.50
2018-11-21T12:34:14.349Z,63.40
2018-11-21T12:37:01.590Z,64.40
2018-11-21T12:39:50.553Z,64.40
2018-11-21T12:42:40.775Z,63.10
2018-11-21T12:45:42.025Z,63.30
2018-11-21T12:48:29.884Z,62.10
2018-11-21T12:51:18.998Z,63.30
2018-11-21T12:54:13.333Z,64.20
2018-11-21T12:57:17.483Z,64.70
2018-11-21T13:00:05.427Z,63.80
2018-11-21T13:02:56.948Z,64.00
2018-11-21T13:05:51.339Z,61.60
2018-11-21T13:08:42.449Z,62.40
2018-11-21T13:11:45.259Z,63.00
2018-11-21T13:14:42.811Z,64.30
2018-11-21T13:17:37.323Z,66.00
2018-11-21T13:20:45.239Z,65.50
2018-11-21T13:23:24.534Z,66.10
2018-11-21T13:26:19.099Z,67.00
2018-11-21T13:29:24.940Z,68.10
2018-11-21T13:32:16.699Z,68.40
2018-11-21T13:34:53.143Z,69.20
2018-11-21T13:37:50.893Z,69.60
2018-11-21T13:40:40.214Z,69.60
2018-11-21T13:43:39.438Z,69.90
2018-11-21T13:46:29.469Z,69.90
2018-11-21T13:49:18.839Z,70.20
2018-11-21T13:52:07.484Z,70.80
2018-11-21T13:55:02.464Z,71.50
2018-11-21T13:57:32.764Z,71.00
2018-11-21T14:00:03.564Z,71.70
2018-11-21T14:02:33.424Z,72.40
2018-11-21T14:05:03.324Z,72.60
2018-11-21T14:07:33.853Z,72.50
2018-11-21T14:10:04.179Z,72.10
2018-11-21T14:12:34.103Z,71.50
2018-11-21T14:15:04.053Z,71.20
2018-11-21T14:17:33.918Z,71.60
2018-11-21T14:20:04.009Z,72.60
2018-11-21T14:22:33.915Z,72.50
2018-11-21T14:25:04.234Z,72.20
2018-11-21T14:27:34.294Z,71.70
2018-11-21T14:30:05.001Z,71.00
2018-11-21T14:32:36.914Z,71.80
2018-11-21T14:35:10.178Z,71.80
2018-11-21T14:37:40.054Z,71.80
2018-11-21T14:40:12.714Z,72.00
2018-11-21T14:42:42.893Z,72.70
2018-11-21T14:45:14.739Z,72.80
2018-11-21T14:47:46.791Z,72.80
2018-11-21T14:50:25.604Z,72.90
2018-11-21T14:52:55.413Z,73.00
2018-11-21T14:55:25.488Z,72.50
2018-11-21T14:57:57.913Z,73.10
2018-11-21T15:00:28.331Z,73.40
2018-11-21T15:02:58.829Z,73.90
2018-11-21T15:05:28.743Z,73.70
2018-11-21T15:08:00.157Z,74.10
2018-11-21T15:10:30.804Z,74.40
2018-11-21T15:13:04.714Z,74.70
2018-11-21T15:15:34.724Z,73.90
2018-11-21T15:18:04.909Z,74.00
2018-11-21T15:20:34.809Z,74.40
2018-11-21T15:23:05.644Z,75.00
2018-11-21T15:25:36.273Z,75.40
2018-11-21T15:28:06.569Z,75.70
2018-11-21T15:30:36.509Z,76.00
2018-11-21T15:33:07.174Z,76.30
2018-11-21T15:35:37.534Z,76.20
2018-11-21T15:38:07.909Z,76.60
2018-11-21T15:40:39.368Z,77.50
2018-11-21T15:43:09.618Z,78.10
2018-11-21T15:45:40.052Z,77.90
2018-11-21T15:48:10.295Z,77.90
2018-11-21T15:50:40.514Z,78.10
2018-11-21T15:53:10.614Z,78.10
2018-11-21T15:55:40.649Z,78.50
2018-11-21T15:58:10.545Z,78.40
2018-11-21T16:00:40.649Z,78.60
2018-11-21T16:03:11.924Z,78.80
2018-11-21T16:05:41.798Z,79.00
2018-11-21T16:08:11.670Z,79.40
2018-11-21T16:10:43.339Z,79.50
2018-11-21T16:13:13.194Z,79.90
2018-11-21T16:15:51.082Z,80.00
2018-11-21T16:18:23.324Z,80.30
2018-11-21T16:20:53.191Z,80.20
2018-11-21T16:23:23.268Z,80.30
2018-11-21T16:25:53.019Z,80.20
2018-11-21T16:28:23.169Z,80.20
2018-11-21T16:30:53.146Z,80.20
2018-11-21T16:33:23.150Z,80.80
2018-11-21T16:35:53.315Z,80.30
2018-11-21T16:38:23.845Z,80.70
2018-11-21T16:40:54.179Z,81.30
2018-11-21T16:43:24.966Z,81.90
2018-11-21T16:45:56.844Z,81.90
2018-11-21T16:48:26.674Z,82.20
2018-11-21T16:50:56.489Z,82.40
2018-11-21T16:53:26.688Z,82.70
2018-11-21T16:55:58.828Z,83.10
2018-11-21T16:58:29.115Z,83.70
2018-11-21T17:00:59.594Z,83.90
2018-11-21T17:03:28.803Z,84.20
2018-11-21T17:05:59.079Z,84.90
2018-11-21T17:08:29.294Z,85.20
2018-11-21T17:10:59.519Z,85.30
2018-11-21T17:13:29.360Z,85.60
2018-11-21T17:15:59.657Z,86.00
2018-11-21T17:18:30.074Z,86.30
2018-11-21T17:20:59.880Z,86.80
2018-11-21T17:23:29.800Z,86.70
2018-11-21T17:25:59.889Z,87.00
2018-11-21T17:28:30.403Z,86.70
2018-11-21T17:31:00.333Z,86.90
2018-11-21T17:33:30.721Z,87.00
2018-11-21T17:36:00.540Z,87.30
2018-11-21T17:38:33.612Z,87.40
2018-11-21T17:41:00.596Z,87.80
2018-11-21T17:43:30.955Z,87.90
2018-11-21T17:46:04.080Z,88.40
2018-11-21T17:48:33.529Z,88.40
2018-11-21T17:51:04.597Z,88.60
2018-11-21T17:53:34.764Z,89.10
2018-11-21T17:56:04.558Z,88.90
2018-11-21T17:58:34.314Z,88.90
2018-11-21T18:01:04.415Z,89.10
2018-11-21T18:03:34.679Z,89.30
2018-11-21T18:06:04.894Z,90.00
2018-11-21T18:08:37.744Z,90.30
2018-11-21T18:11:07.721Z,90.50
2018-11-21T18:13:37.473Z,90.40
2018-11-21T18:16:07.988Z,90.10
2018-11-21T18:18:38.325Z,90.00
2018-11-21T18:21:08.155Z,89.70
2018-11-21T18:23:39.075Z,90.00
2018-11-21T18:26:08.933Z,90.00
2018-11-21T18:28:39.408Z,90.00
2018-11-21T18:31:09.575Z,90.10
2018-11-21T18:33:39.614Z,90.30
2018-11-21T18:36:09.648Z,90.30
2018-11-21T18:38:39.992Z,90.40
2018-11-21T18:41:11.360Z,90.30
2018-11-21T18:43:41.368Z,90.40
2018-11-21T18:46:11.181Z,90.50
2018-11-21T18:48:40.978Z,90.40
2018-11-21T18:51:11.169Z,90.60
2018-11-21T18:53:41.524Z,90.60
2018-11-21T18:56:35.908Z,90.60
2018-11-21T18:59:16.002Z,90.60
2018-11-21T19:01:46.782Z,90.60
2018-11-21T19:04:16.119Z,90.80
2018-11-21T19:06:46.303Z,91.00
2018-11-21T19:09:16.925Z,91.20
2018-11-21T19:11:46.750Z,90.90
2018-11-21T19:14:16.629Z,90.80
2018-11-21T19:16:46.524Z,90.90
2018-11-21T19:19:16.439Z,90.80
2018-11-21T19:21:46.720Z,90.80
2018-11-21T19:24:17.036Z,90.80
2018-11-21T19:26:47.694Z,90.40
2018-11-21T19:29:17.949Z,90.60
2018-11-21T19:31:47.964Z,90.60
2018-11-21T19:34:17.819Z,90.10
2018-11-21T19:36:48.094Z,89.30
2018-11-21T19:39:18.273Z,88.40
2018-11-21T19:41:48.269Z,88.30
2018-11-21T19:44:18.264Z,88.50
2018-11-21T19:46:48.490Z,90.00
2018-11-21T19:49:18.296Z,90.20
2018-11-21T19:51:48.609Z,90.10
2018-11-21T19:54:18.793Z,89.40
2018-11-21T19:56:48.954Z,88.80
2018-11-21T19:59:29.715Z,87.80
2018-11-21T20:01:59.550Z,87.10
2018-11-21T20:04:29.747Z,86.60
2018-11-21T20:06:59.585Z,86.70
2018-11-21T20:09:32.564Z,86.40
2018-11-21T20:12:02.853Z,86.40
2018-11-21T20:14:32.694Z,86.40
2018-11-21T20:17:03.041Z,86.50
2018-11-21T20:19:32.794Z,86.70
2018-11-21T20:22:02.745Z,86.70
2018-11-21T20:24:32.681Z,87.30
2018-11-21T20:27:02.648Z,87.30
2018-11-21T20:29:32.679Z,88.10
2018-11-21T20:32:03.526Z,88.00
2018-11-21T20:34:33.316Z,87.80
2018-11-21T20:37:03.319Z,87.70
2018-11-21T20:39:33.199Z,87.60
2018-11-21T20:42:03.349Z,87.70
2018-11-21T20:44:33.363Z,87.90
2018-11-21T20:47:03.814Z,88.00
2018-11-21T20:49:33.964Z,88.10
2018-11-21T20:52:06.933Z,88.10
2018-11-21T20:54:37.024Z,88.50
2018-11-21T20:57:07.285Z,88.30
2018-11-21T20:59:37.429Z,88.10
2018-11-21T21:02:07.339Z,88.10
2018-11-21T21:04:37.478Z,88.10
2018-11-21T21:07:07.590Z,88.10
2018-11-21T21:09:37.884Z,88.00
2018-11-21T21:12:08.884Z,88.00
2018-11-21T21:14:38.804Z,88.30
2018-11-21T21:17:08.744Z,88.40
2018-11-21T21:19:40.515Z,88.40
2018-11-21T21:22:10.405Z,88.20
2018-11-21T21:24:40.322Z,88.30
2018-11-21T21:27:10.254Z,88.10
2018-11-21T21:29:43.419Z,88.00
2018-11-21T21:32:13.393Z,87.60
2018-11-21T21:34:43.463Z,87.60
2018-11-21T21:37:13.386Z,87.80
2018-11-21T21:39:43.284Z,87.70
2018-11-21T21:42:13.224Z,87.80
2018-11-21T21:44:44.423Z,88.00
2018-11-21T21:47:14.968Z,88.10
2018-11-21T21:49:46.009Z,87.80
2018-11-21T21:52:15.933Z,88.20
2018-11-21T21:54:45.750Z,87.40
2018-11-21T21:57:15.704Z,85.90
2018-11-21T21:59:45.544Z,86.30
2018-11-21T22:02:15.839Z,85.80
2018-11-21T22:04:45.654Z,85.90
2018-11-21T22:07:15.744Z,85.70
2018-11-21T22:12:16.953Z,85.70
2018-11-21T22:14:47.012Z,86.50
2018-11-21T22:17:17.099Z,86.80
2018-11-21T22:19:46.990Z,87.30
2018-11-21T22:22:16.840Z,87.60
2018-11-21T22:24:46.945Z,88.40
2018-11-21T22:27:18.199Z,89.50
2018-11-21T22:29:48.024Z,90.10
2018-11-21T22:32:17.914Z,90.30
2018-11-21T22:34:48.179Z,90.60
2018-11-21T22:37:18.039Z,91.00
2018-11-21T22:39:47.871Z,91.10
2018-11-21T22:42:18.124Z,91.30
2018-11-21T22:44:48.174Z,91.60
2018-11-21T22:47:21.674Z,91.80
2018-11-21T22:49:51.895Z,92.20
2018-11-21T22:52:21.749Z,92.20
2018-11-21T22:54:51.783Z,92.50
2018-11-21T22:57:21.874Z,92.50
2018-11-21T22:59:51.705Z,92.70
2018-11-21T23:02:21.655Z,92.60
2018-11-21T23:04:51.493Z,92.60
2018-11-21T23:07:21.465Z,92.60
2018-11-21T23:09:51.764Z,92.70
2018-11-21T23:12:21.564Z,93.00
2018-11-21T23:14:52.161Z,93.10
2018-11-21T23:17:21.989Z,93.20
2018-11-21T23:19:52.249Z,93.20
2018-11-21T23:22:22.024Z,93.10
2018-11-21T23:24:51.949Z,93.10
2018-11-21T23:27:22.029Z,92.90
2018-11-21T23:29:52.695Z,93.30
2018-11-21T23:32:22.649Z,93.30
2018-11-21T23:34:52.939Z,92.90
2018-11-21T23:37:22.989Z,93.10
2018-11-21T23:39:53.004Z,93.00
2018-11-21T23:42:22.789Z,93.10
2018-11-21T23:44:52.870Z,93.10
2018-11-21T23:47:23.259Z,92.80
2018-11-21T23:49:53.044Z,92.60
2018-11-21T23:52:24.624Z,92.40
2018-11-21T23:54:54.804Z,92.50
2018-11-21T23:57:24.943Z,92.30
2018-11-21T23:59:54.655Z,92.60
